sensor_id;sensor_type;location;lat;lon;timestamp;temperature;humidity
48912;DHT22;34722;52.108;5.044;2023-07-20T00:02:07;16.10;99.90
48912;DHT22;34722;52.108;5.044;2023-07-20T00:04:34;16.10;99.90
48912;DHT22;34722;52.108;5.044;2023-07-20T00:07:00;16.10;99.90
48912;DHT22;34722;52.108;5.044;2023-07-20T00:09:29;16.10;99.90
48912;DHT22;34722;52.108;5.044;2023-07-20T00:11:54;16.10;99.90
48912;DHT22;34722;52.108;5.044;2023-07-20T00:14:21;16.10;99.90
48912;DHT22;34722;52.108;5.044;2023-07-20T00:16:47;16.20;99.90
48912;DHT22;34722;52.108;5.044;2023-07-20T00:19:22;16.20;99.90
48912;DHT22;34722;52.108;5.044;2023-07-20T00:21:55;16.20;99.90
48912;DHT22;34722;52.108;5.044;2023-07-20T00:24:20;16.10;99.90
48912;DHT22;34722;52.108;5.044;2023-07-20T00:26:46;16.10;99.90
48912;DHT22;34722;52.108;5.044;2023-07-20T00:29:12;16.10;99.90
48912;DHT22;34722;52.108;5.044;2023-07-20T00:31:38;16.00;99.90
48912;DHT22;34722;52.108;5.044;2023-07-20T00:34:04;15.90;99.90
48912;DHT22;34722;52.108;5.044;2023-07-20T00:36:30;15.80;99.90
48912;DHT22;34722;52.108;5.044;2023-07-20T00:38:56;15.70;99.90
48912;DHT22;34722;52.108;5.044;2023-07-20T00:41:22;15.60;99.90
48912;DHT22;34722;52.108;5.044;2023-07-20T00:43:47;15.50;99.90
48912;DHT22;34722;52.108;5.044;2023-07-20T00:46:14;15.40;99.90
48912;DHT22;34722;52.108;5.044;2023-07-20T00:48:40;15.40;99.90
48912;DHT22;34722;52.108;5.044;2023-07-20T00:51:07;15.30;99.90
48912;DHT22;34722;52.108;5.044;2023-07-20T00:53:33;15.20;99.90
48912;DHT22;34722;52.108;5.044;2023-07-20T00:55:59;15.20;99.90
48912;DHT22;34722;52.108;5.044;2023-07-20T00:58:25;15.10;99.90
48912;DHT22;34722;52.108;5.044;2023-07-20T01:00:53;15.10;99.90
48912;DHT22;34722;52.108;5.044;2023-07-20T01:03:19;15.10;99.90
48912;DHT22;34722;52.108;5.044;2023-07-20T01:05:48;15.00;99.90
48912;DHT22;34722;52.108;5.044;2023-07-20T01:08:46;15.00;99.90
48912;DHT22;34722;52.108;5.044;2023-07-20T01:11:18;15.00;99.90
48912;DHT22;34722;52.108;5.044;2023-07-20T01:13:45;15.00;99.90
48912;DHT22;34722;52.108;5.044;2023-07-20T01:16:12;15.00;99.90
48912;DHT22;34722;52.108;5.044;2023-07-20T01:18:38;14.90;99.90
48912;DHT22;34722;52.108;5.044;2023-07-20T01:21:08;14.90;99.90
48912;DHT22;34722;52.108;5.044;2023-07-20T01:32:10;14.80;99.90
48912;DHT22;34722;52.108;5.044;2023-07-20T01:34:37;14.80;99.90
48912;DHT22;34722;52.108;5.044;2023-07-20T01:37:06;14.80;99.90
48912;DHT22;34722;52.108;5.044;2023-07-20T01:39:32;14.70;99.90
48912;DHT22;34722;52.108;5.044;2023-07-20T01:41:59;14.70;99.90
48912;DHT22;34722;52.108;5.044;2023-07-20T01:44:25;14.60;99.90
48912;DHT22;34722;52.108;5.044;2023-07-20T01:46:51;14.60;99.90
48912;DHT22;34722;52.108;5.044;2023-07-20T01:49:16;14.60;99.90
48912;DHT22;34722;52.108;5.044;2023-07-20T01:51:42;14.60;99.90
48912;DHT22;34722;52.108;5.044;2023-07-20T01:54:11;14.50;99.90
48912;DHT22;34722;52.108;5.044;2023-07-20T01:56:37;14.50;99.90
48912;DHT22;34722;52.108;5.044;2023-07-20T01:59:06;14.50;99.90
48912;DHT22;34722;52.108;5.044;2023-07-20T02:01:34;14.50;99.90
48912;DHT22;34722;52.108;5.044;2023-07-20T02:04:00;14.40;99.90
48912;DHT22;34722;52.108;5.044;2023-07-20T02:06:26;14.40;99.90
48912;DHT22;34722;52.108;5.044;2023-07-20T02:08:52;14.40;99.90
48912;DHT22;34722;52.108;5.044;2023-07-20T02:11:18;14.40;99.90
48912;DHT22;34722;52.108;5.044;2023-07-20T02:13:47;14.30;99.90
48912;DHT22;34722;52.108;5.044;2023-07-20T02:16:12;14.30;99.90
48912;DHT22;34722;52.108;5.044;2023-07-20T02:18:38;14.30;99.90
48912;DHT22;34722;52.108;5.044;2023-07-20T02:21:04;14.30;99.90
48912;DHT22;34722;52.108;5.044;2023-07-20T02:23:39;14.30;99.90
48912;DHT22;34722;52.108;5.044;2023-07-20T02:26:08;14.30;99.90
48912;DHT22;34722;52.108;5.044;2023-07-20T02:28:34;14.30;99.90
48912;DHT22;34722;52.108;5.044;2023-07-20T02:31:00;14.30;99.90
48912;DHT22;34722;52.108;5.044;2023-07-20T02:33:26;14.40;99.90
48912;DHT22;34722;52.108;5.044;2023-07-20T02:35:52;14.30;99.90
48912;DHT22;34722;52.108;5.044;2023-07-20T02:38:18;14.30;99.90
48912;DHT22;34722;52.108;5.044;2023-07-20T02:40:43;14.30;99.90
48912;DHT22;34722;52.108;5.044;2023-07-20T02:43:09;14.20;99.90
48912;DHT22;34722;52.108;5.044;2023-07-20T02:45:41;14.20;99.90
48912;DHT22;34722;52.108;5.044;2023-07-20T02:48:12;14.20;99.90
48912;DHT22;34722;52.108;5.044;2023-07-20T02:50:38;14.10;99.90
48912;DHT22;34722;52.108;5.044;2023-07-20T02:53:04;14.10;99.90
48912;DHT22;34722;52.108;5.044;2023-07-20T02:55:30;14.20;99.90
48912;DHT22;34722;52.108;5.044;2023-07-20T02:57:56;14.20;99.90
48912;DHT22;34722;52.108;5.044;2023-07-20T03:00:22;14.10;99.90
48912;DHT22;34722;52.108;5.044;2023-07-20T03:02:48;14.00;99.90
48912;DHT22;34722;52.108;5.044;2023-07-20T03:05:14;14.00;99.90
48912;DHT22;34722;52.108;5.044;2023-07-20T03:07:42;14.00;99.90
48912;DHT22;34722;52.108;5.044;2023-07-20T03:10:11;14.00;99.90
48912;DHT22;34722;52.108;5.044;2023-07-20T03:12:38;13.90;99.90
48912;DHT22;34722;52.108;5.044;2023-07-20T03:15:04;13.90;99.90
48912;DHT22;34722;52.108;5.044;2023-07-20T03:17:30;13.90;99.90
48912;DHT22;34722;52.108;5.044;2023-07-20T03:19:56;13.90;99.90
48912;DHT22;34722;52.108;5.044;2023-07-20T03:22:22;13.90;99.90
48912;DHT22;34722;52.108;5.044;2023-07-20T03:24:48;13.80;99.90
48912;DHT22;34722;52.108;5.044;2023-07-20T03:27:16;13.80;99.90
48912;DHT22;34722;52.108;5.044;2023-07-20T03:29:47;13.80;99.90
48912;DHT22;34722;52.108;5.044;2023-07-20T03:32:16;13.80;99.90
48912;DHT22;34722;52.108;5.044;2023-07-20T03:34:48;13.70;99.90
48912;DHT22;34722;52.108;5.044;2023-07-20T03:37:18;13.80;99.90
48912;DHT22;34722;52.108;5.044;2023-07-20T03:39:46;13.70;99.90
48912;DHT22;34722;52.108;5.044;2023-07-20T03:42:20;13.70;99.90
48912;DHT22;34722;52.108;5.044;2023-07-20T03:44:54;13.70;99.90
48912;DHT22;34722;52.108;5.044;2023-07-20T03:47:25;13.70;99.90
48912;DHT22;34722;52.108;5.044;2023-07-20T03:49:51;13.70;99.90
48912;DHT22;34722;52.108;5.044;2023-07-20T03:52:19;13.60;99.90
48912;DHT22;34722;52.108;5.044;2023-07-20T03:54:47;13.60;99.90
48912;DHT22;34722;52.108;5.044;2023-07-20T03:57:15;13.70;99.90
48912;DHT22;34722;52.108;5.044;2023-07-20T03:59:45;13.70;99.90
48912;DHT22;34722;52.108;5.044;2023-07-20T04:02:12;13.80;99.90
48912;DHT22;34722;52.108;5.044;2023-07-20T04:04:40;13.80;99.90
48912;DHT22;34722;52.108;5.044;2023-07-20T04:07:08;13.80;99.90
48912;DHT22;34722;52.108;5.044;2023-07-20T04:09:41;13.90;99.90
48912;DHT22;34722;52.108;5.044;2023-07-20T04:12:09;13.90;99.90
48912;DHT22;34722;52.108;5.044;2023-07-20T04:14:38;13.90;99.90
48912;DHT22;34722;52.108;5.044;2023-07-20T04:17:04;13.90;99.90
48912;DHT22;34722;52.108;5.044;2023-07-20T04:19:31;13.90;99.90
48912;DHT22;34722;52.108;5.044;2023-07-20T04:21:59;14.00;99.90
48912;DHT22;34722;52.108;5.044;2023-07-20T04:24:26;14.00;99.90
48912;DHT22;34722;52.108;5.044;2023-07-20T04:27:12;14.00;99.90
48912;DHT22;34722;52.108;5.044;2023-07-20T04:29:41;14.10;99.90
48912;DHT22;34722;52.108;5.044;2023-07-20T04:32:11;14.10;99.90
48912;DHT22;34722;52.108;5.044;2023-07-20T04:34:38;14.20;99.90
48912;DHT22;34722;52.108;5.044;2023-07-20T04:37:06;14.30;99.90
48912;DHT22;34722;52.108;5.044;2023-07-20T04:39:33;14.40;99.90
48912;DHT22;34722;52.108;5.044;2023-07-20T04:42:00;14.60;99.90
48912;DHT22;34722;52.108;5.044;2023-07-20T04:44:27;14.80;99.90
48912;DHT22;34722;52.108;5.044;2023-07-20T04:46:55;15.00;99.90
48912;DHT22;34722;52.108;5.044;2023-07-20T04:49:22;15.00;99.90
48912;DHT22;34722;52.108;5.044;2023-07-20T04:51:49;15.10;99.90
48912;DHT22;34722;52.108;5.044;2023-07-20T04:54:15;15.20;99.90
48912;DHT22;34722;52.108;5.044;2023-07-20T04:56:43;15.20;99.90
48912;DHT22;34722;52.108;5.044;2023-07-20T04:59:09;15.20;99.90
48912;DHT22;34722;52.108;5.044;2023-07-20T05:01:35;15.20;99.90
48912;DHT22;34722;52.108;5.044;2023-07-20T05:04:02;15.30;99.90
48912;DHT22;34722;52.108;5.044;2023-07-20T05:06:29;15.30;99.90
48912;DHT22;34722;52.108;5.044;2023-07-20T05:09:16;15.30;99.90
48912;DHT22;34722;52.108;5.044;2023-07-20T05:17:35;15.20;99.90
48912;DHT22;34722;52.108;5.044;2023-07-20T05:20:06;15.30;99.90
48912;DHT22;34722;52.108;5.044;2023-07-20T05:22:36;15.30;99.90
48912;DHT22;34722;52.108;5.044;2023-07-20T05:25:10;15.40;99.90
48912;DHT22;34722;52.108;5.044;2023-07-20T05:27:38;15.50;99.90
48912;DHT22;34722;52.108;5.044;2023-07-20T05:30:13;15.40;99.90
48912;DHT22;34722;52.108;5.044;2023-07-20T11:01:04;30.20;1.00
48912;DHT22;34722;52.108;5.044;2023-07-20T11:03:40;29.60;1.00
48912;DHT22;34722;52.108;5.044;2023-07-20T11:06:48;31.10;1.00
48912;DHT22;34722;52.108;5.044;2023-07-20T11:09:34;32.90;1.00
48912;DHT22;34722;52.108;5.044;2023-07-20T11:12:12;34.00;1.00
48912;DHT22;34722;52.108;5.044;2023-07-20T11:14:43;34.20;1.00
48912;DHT22;34722;52.108;5.044;2023-07-20T11:17:20;33.70;1.00
48912;DHT22;34722;52.108;5.044;2023-07-20T11:20:01;31.50;1.00
48912;DHT22;34722;52.108;5.044;2023-07-20T11:22:33;31.50;1.00
48912;DHT22;34722;52.108;5.044;2023-07-20T11:25:18;31.30;1.00
48912;DHT22;34722;52.108;5.044;2023-07-20T11:27:55;29.70;1.00
48912;DHT22;34722;52.108;5.044;2023-07-20T11:30:32;28.60;1.00
48912;DHT22;34722;52.108;5.044;2023-07-20T11:36:08;28.30;1.00
48912;DHT22;34722;52.108;5.044;2023-07-20T11:38:46;29.50;1.00
48912;DHT22;34722;52.108;5.044;2023-07-20T11:41:27;30.80;1.00
48912;DHT22;34722;52.108;5.044;2023-07-20T12:05:24;32.20;1.00
48912;DHT22;34722;52.108;5.044;2023-07-20T12:08:03;30.30;1.00
48912;DHT22;34722;52.108;5.044;2023-07-20T12:10:40;29.00;1.00
48912;DHT22;34722;52.108;5.044;2023-07-20T12:13:11;28.10;1.00
48912;DHT22;34722;52.108;5.044;2023-07-20T12:15:37;27.40;1.00
48912;DHT22;34722;52.108;5.044;2023-07-20T12:18:04;26.60;1.00
48912;DHT22;34722;52.108;5.044;2023-07-20T12:20:32;25.90;1.00
48912;DHT22;34722;52.108;5.044;2023-07-20T12:23:02;25.40;1.00
48912;DHT22;34722;52.108;5.044;2023-07-20T12:29:43;24.90;1.00
48912;DHT22;34722;52.108;5.044;2023-07-20T12:32:13;24.80;1.00
48912;DHT22;34722;52.108;5.044;2023-07-20T12:39:54;24.80;1.00
48912;DHT22;34722;52.108;5.044;2023-07-20T12:42:36;24.60;1.00
48912;DHT22;34722;52.108;5.044;2023-07-20T12:45:03;24.50;1.00
48912;DHT22;34722;52.108;5.044;2023-07-20T12:47:49;25.20;1.00
48912;DHT22;34722;52.108;5.044;2023-07-20T12:50:16;25.40;1.00
48912;DHT22;34722;52.108;5.044;2023-07-20T12:52:48;25.90;1.00
48912;DHT22;34722;52.108;5.044;2023-07-20T12:55:26;26.30;1.00
48912;DHT22;34722;52.108;5.044;2023-07-20T12:57:52;26.40;1.00
48912;DHT22;34722;52.108;5.044;2023-07-20T13:00:21;26.50;1.00
48912;DHT22;34722;52.108;5.044;2023-07-20T13:02:51;26.70;1.00
48912;DHT22;34722;52.108;5.044;2023-07-20T13:05:53;27.10;1.00
48912;DHT22;34722;52.108;5.044;2023-07-20T13:08:21;27.30;1.00
48912;DHT22;34722;52.108;5.044;2023-07-20T13:10:50;27.50;1.00
48912;DHT22;34722;52.108;5.044;2023-07-20T13:13:40;27.60;1.00
48912;DHT22;34722;52.108;5.044;2023-07-20T13:16:21;27.90;1.00
48912;DHT22;34722;52.108;5.044;2023-07-20T13:18:50;27.70;1.00
48912;DHT22;34722;52.108;5.044;2023-07-20T13:21:25;27.10;1.00
48912;DHT22;34722;52.108;5.044;2023-07-20T13:23:57;26.70;1.00
48912;DHT22;34722;52.108;5.044;2023-07-20T13:26:24;26.80;1.00
48912;DHT22;34722;52.108;5.044;2023-07-20T13:28:52;26.90;1.00
48912;DHT22;34722;52.108;5.044;2023-07-20T13:31:39;27.00;1.00
48912;DHT22;34722;52.108;5.044;2023-07-20T13:34:16;26.80;1.00
48912;DHT22;34722;52.108;5.044;2023-07-20T13:37:10;27.00;1.00
48912;DHT22;34722;52.108;5.044;2023-07-20T13:39:40;27.20;1.00
48912;DHT22;34722;52.108;5.044;2023-07-20T13:42:09;26.80;1.00
48912;DHT22;34722;52.108;5.044;2023-07-20T13:44:39;26.80;1.00
48912;DHT22;34722;52.108;5.044;2023-07-20T13:47:07;26.50;1.00
48912;DHT22;34722;52.108;5.044;2023-07-20T13:49:40;26.40;1.00
48912;DHT22;34722;52.108;5.044;2023-07-20T13:52:09;26.00;1.00
48912;DHT22;34722;52.108;5.044;2023-07-20T13:54:35;26.10;1.00
48912;DHT22;34722;52.108;5.044;2023-07-20T13:57:05;26.40;1.00
48912;DHT22;34722;52.108;5.044;2023-07-20T13:59:31;26.30;1.00
48912;DHT22;34722;52.108;5.044;2023-07-20T14:01:58;26.70;1.00
48912;DHT22;34722;52.108;5.044;2023-07-20T14:04:25;26.90;1.00
48912;DHT22;34722;52.108;5.044;2023-07-20T14:06:56;26.90;1.00
48912;DHT22;34722;52.108;5.044;2023-07-20T14:09:24;26.40;1.00
48912;DHT22;34722;52.108;5.044;2023-07-20T14:11:55;26.30;1.00
48912;DHT22;34722;52.108;5.044;2023-07-20T14:14:24;26.50;1.00
48912;DHT22;34722;52.108;5.044;2023-07-20T14:16:51;26.70;1.00
48912;DHT22;34722;52.108;5.044;2023-07-20T14:19:18;26.50;1.00
48912;DHT22;34722;52.108;5.044;2023-07-20T14:21:47;26.40;1.00
48912;DHT22;34722;52.108;5.044;2023-07-20T14:24:34;26.20;1.00
48912;DHT22;34722;52.108;5.044;2023-07-20T14:27:27;26.20;1.00
48912;DHT22;34722;52.108;5.044;2023-07-20T14:30:30;26.30;1.00
48912;DHT22;34722;52.108;5.044;2023-07-20T14:33:01;26.50;1.00
48912;DHT22;34722;52.108;5.044;2023-07-20T14:35:27;26.50;1.00
48912;DHT22;34722;52.108;5.044;2023-07-20T14:38:22;26.30;1.00
48912;DHT22;34722;52.108;5.044;2023-07-20T14:41:03;26.20;1.00
48912;DHT22;34722;52.108;5.044;2023-07-20T14:43:36;26.20;1.00
48912;DHT22;34722;52.108;5.044;2023-07-20T14:46:12;25.80;1.00
48912;DHT22;34722;52.108;5.044;2023-07-20T14:52:13;25.30;1.00
48912;DHT22;34722;52.108;5.044;2023-07-20T15:10:10;25.40;1.00
48912;DHT22;34722;52.108;5.044;2023-07-20T15:12:54;25.40;1.00
48912;DHT22;34722;52.108;5.044;2023-07-20T15:15:22;25.20;1.00
48912;DHT22;34722;52.108;5.044;2023-07-20T15:17:49;25.10;1.00
48912;DHT22;34722;52.108;5.044;2023-07-20T15:20:18;24.80;1.00
48912;DHT22;34722;52.108;5.044;2023-07-20T15:22:51;24.90;1.00
48912;DHT22;34722;52.108;5.044;2023-07-20T15:25:20;24.60;1.00
48912;DHT22;34722;52.108;5.044;2023-07-20T15:27:47;24.60;1.00
48912;DHT22;34722;52.108;5.044;2023-07-20T15:30:16;24.50;1.00
48912;DHT22;34722;52.108;5.044;2023-07-20T15:32:43;24.40;1.00
48912;DHT22;34722;52.108;5.044;2023-07-20T15:35:10;24.40;1.00
48912;DHT22;34722;52.108;5.044;2023-07-20T15:37:38;24.50;1.00
48912;DHT22;34722;52.108;5.044;2023-07-20T15:40:05;24.50;1.00
48912;DHT22;34722;52.108;5.044;2023-07-20T15:42:34;24.30;1.00
48912;DHT22;34722;52.108;5.044;2023-07-20T15:45:14;24.30;1.00
48912;DHT22;34722;52.108;5.044;2023-07-20T15:47:40;24.40;1.00
48912;DHT22;34722;52.108;5.044;2023-07-20T15:50:07;24.40;1.00
48912;DHT22;34722;52.108;5.044;2023-07-20T15:52:35;24.00;1.00
48912;DHT22;34722;52.108;5.044;2023-07-20T15:58:22;23.50;1.00
48912;DHT22;34722;52.108;5.044;2023-07-20T16:01:03;23.40;1.00
48912;DHT22;34722;52.108;5.044;2023-07-20T16:03:36;23.40;1.00
48912;DHT22;34722;52.108;5.044;2023-07-20T16:06:14;23.40;1.00
48912;DHT22;34722;52.108;5.044;2023-07-20T16:08:43;23.30;1.00
48912;DHT22;34722;52.108;5.044;2023-07-20T16:11:16;23.30;1.00
48912;DHT22;34722;52.108;5.044;2023-07-20T16:13:52;23.40;1.00
48912;DHT22;34722;52.108;5.044;2023-07-20T16:16:18;23.40;1.00
48912;DHT22;34722;52.108;5.044;2023-07-20T16:18:48;23.40;1.00
48912;DHT22;34722;52.108;5.044;2023-07-20T16:23:51;23.30;1.00
48912;DHT22;34722;52.108;5.044;2023-07-20T16:26:18;23.30;1.00
48912;DHT22;34722;52.108;5.044;2023-07-20T16:29:06;23.30;1.00
48912;DHT22;34722;52.108;5.044;2023-07-20T16:31:45;23.60;1.00
48912;DHT22;34722;52.108;5.044;2023-07-20T16:38:12;23.60;1.00
48912;DHT22;34722;52.108;5.044;2023-07-20T16:40:59;23.30;1.00
48912;DHT22;34722;52.108;5.044;2023-07-20T16:43:44;23.20;1.00
48912;DHT22;34722;52.108;5.044;2023-07-20T16:56:50;23.40;1.00
48912;DHT22;34722;52.108;5.044;2023-07-20T16:59:16;23.30;1.00
48912;DHT22;34722;52.108;5.044;2023-07-20T17:01:44;23.30;1.00
48912;DHT22;34722;52.108;5.044;2023-07-20T17:04:26;23.40;1.00
48912;DHT22;34722;52.108;5.044;2023-07-20T17:06:56;23.50;1.00
48912;DHT22;34722;52.108;5.044;2023-07-20T17:09:29;23.30;1.00
48912;DHT22;34722;52.108;5.044;2023-07-20T17:11:57;23.10;1.00
48912;DHT22;34722;52.108;5.044;2023-07-20T17:14:24;22.90;1.00
48912;DHT22;34722;52.108;5.044;2023-07-20T17:16:54;22.80;1.00
48912;DHT22;34722;52.108;5.044;2023-07-20T17:19:22;22.70;1.00
48912;DHT22;34722;52.108;5.044;2023-07-20T17:22:00;22.50;1.00
48912;DHT22;34722;52.108;5.044;2023-07-20T17:24:27;22.50;1.00
48912;DHT22;34722;52.108;5.044;2023-07-20T17:26:55;22.30;1.00
48912;DHT22;34722;52.108;5.044;2023-07-20T17:29:24;22.10;1.00
48912;DHT22;34722;52.108;5.044;2023-07-20T17:31:51;22.00;1.00
48912;DHT22;34722;52.108;5.044;2023-07-20T17:34:18;21.90;1.00
48912;DHT22;34722;52.108;5.044;2023-07-20T17:44:24;21.80;1.00
48912;DHT22;34722;52.108;5.044;2023-07-20T17:47:21;21.80;1.00
48912;DHT22;34722;52.108;5.044;2023-07-20T18:18:20;22.00;1.00
48912;DHT22;34722;52.108;5.044;2023-07-20T18:20:47;21.90;1.00
48912;DHT22;34722;52.108;5.044;2023-07-20T18:32:21;21.50;1.00
48912;DHT22;34722;52.108;5.044;2023-07-20T18:34:47;21.50;29.70
48912;DHT22;34722;52.108;5.044;2023-07-20T18:40:06;21.40;27.40
48912;DHT22;34722;52.108;5.044;2023-07-20T18:42:41;21.40;27.60
48912;DHT22;34722;52.108;5.044;2023-07-20T18:45:12;21.40;38.30
48912;DHT22;34722;52.108;5.044;2023-07-20T18:47:42;21.20;1.00
48912;DHT22;34722;52.108;5.044;2023-07-20T18:50:16;21.20;99.90
48912;DHT22;34722;52.108;5.044;2023-07-20T18:52:45;21.10;1.00
48912;DHT22;34722;52.108;5.044;2023-07-20T18:55:13;21.10;1.00
48912;DHT22;34722;52.108;5.044;2023-07-20T18:57:42;20.90;1.00
48912;DHT22;34722;52.108;5.044;2023-07-20T19:00:29;20.80;99.90
48912;DHT22;34722;52.108;5.044;2023-07-20T19:05:44;20.60;99.90
48912;DHT22;34722;52.108;5.044;2023-07-20T19:08:33;20.40;1.00
48912;DHT22;34722;52.108;5.044;2023-07-20T19:11:08;20.20;1.00
48912;DHT22;34722;52.108;5.044;2023-07-20T19:13:40;20.00;99.90
48912;DHT22;34722;52.108;5.044;2023-07-20T19:16:11;19.90;1.00
48912;DHT22;34722;52.108;5.044;2023-07-20T19:18:38;19.60;6.00
48912;DHT22;34722;52.108;5.044;2023-07-20T19:21:07;19.50;99.90
48912;DHT22;34722;52.108;5.044;2023-07-20T19:23:35;19.30;99.90
48912;DHT22;34722;52.108;5.044;2023-07-20T19:26:20;19.20;1.00
48912;DHT22;34722;52.108;5.044;2023-07-20T19:28:54;19.00;93.40
48912;DHT22;34722;52.108;5.044;2023-07-20T19:31:22;19.00;99.90
48912;DHT22;34722;52.108;5.044;2023-07-20T19:33:51;18.90;99.90
48912;DHT22;34722;52.108;5.044;2023-07-20T19:36:17;18.70;99.90
48912;DHT22;34722;52.108;5.044;2023-07-20T19:38:55;18.60;99.90
48912;DHT22;34722;52.108;5.044;2023-07-20T19:41:25;18.60;99.90
48912;DHT22;34722;52.108;5.044;2023-07-20T19:43:54;18.50;99.90
48912;DHT22;34722;52.108;5.044;2023-07-20T19:47:04;18.40;1.00
48912;DHT22;34722;52.108;5.044;2023-07-20T19:50:08;18.30;1.00
48912;DHT22;34722;52.108;5.044;2023-07-20T19:52:39;18.20;1.00
48912;DHT22;34722;52.108;5.044;2023-07-20T19:55:09;18.20;1.00
48912;DHT22;34722;52.108;5.044;2023-07-20T19:57:35;18.10;1.00
48912;DHT22;34722;52.108;5.044;2023-07-20T20:00:11;18.00;1.00
48912;DHT22;34722;52.108;5.044;2023-07-20T20:02:40;17.90;1.00
48912;DHT22;34722;52.108;5.044;2023-07-20T20:05:10;17.80;1.00
48912;DHT22;34722;52.108;5.044;2023-07-20T20:07:40;17.70;1.00
48912;DHT22;34722;52.108;5.044;2023-07-20T20:10:11;17.70;1.00
48912;DHT22;34722;52.108;5.044;2023-07-20T20:12:38;17.60;2.50
48912;DHT22;34722;52.108;5.044;2023-07-20T20:15:17;17.50;22.50
48912;DHT22;34722;52.108;5.044;2023-07-20T20:17:44;17.40;38.20
48912;DHT22;34722;52.108;5.044;2023-07-20T20:20:12;17.50;60.50
48912;DHT22;34722;52.108;5.044;2023-07-20T20:25:23;17.40;91.90
48912;DHT22;34722;52.108;5.044;2023-07-20T20:27:53;17.40;99.90
48912;DHT22;34722;52.108;5.044;2023-07-20T20:30:20;17.30;99.90
48912;DHT22;34722;52.108;5.044;2023-07-20T20:32:54;17.30;99.90
48912;DHT22;34722;52.108;5.044;2023-07-20T20:35:25;17.30;99.90
48912;DHT22;34722;52.108;5.044;2023-07-20T20:40:46;17.40;99.90
48912;DHT22;34722;52.108;5.044;2023-07-20T20:43:16;17.40;99.90
48912;DHT22;34722;52.108;5.044;2023-07-20T20:45:44;17.40;99.90
48912;DHT22;34722;52.108;5.044;2023-07-20T20:48:16;17.40;99.90
48912;DHT22;34722;52.108;5.044;2023-07-20T20:50:45;17.50;99.90
48912;DHT22;34722;52.108;5.044;2023-07-20T20:53:13;17.50;96.10
48912;DHT22;34722;52.108;5.044;2023-07-20T20:55:42;17.50;47.80
48912;DHT22;34722;52.108;5.044;2023-07-20T20:58:10;17.50;21.90
48912;DHT22;34722;52.108;5.044;2023-07-20T21:00:46;17.60;1.00
48912;DHT22;34722;52.108;5.044;2023-07-20T21:03:14;17.60;1.00
48912;DHT22;34722;52.108;5.044;2023-07-20T21:05:42;17.60;1.00
48912;DHT22;34722;52.108;5.044;2023-07-20T21:08:11;17.60;1.00
48912;DHT22;34722;52.108;5.044;2023-07-20T21:10:51;17.60;1.00
48912;DHT22;34722;52.108;5.044;2023-07-20T21:14:08;17.60;1.00
48912;DHT22;34722;52.108;5.044;2023-07-20T21:16:42;17.50;1.00
48912;DHT22;34722;52.108;5.044;2023-07-20T21:19:33;17.50;1.00
48912;DHT22;34722;52.108;5.044;2023-07-20T21:22:29;17.50;1.00
48912;DHT22;34722;52.108;5.044;2023-07-20T21:25:06;17.40;1.00
48912;DHT22;34722;52.108;5.044;2023-07-20T21:27:36;17.40;1.00
48912;DHT22;34722;52.108;5.044;2023-07-20T21:30:08;17.40;1.00
48912;DHT22;34722;52.108;5.044;2023-07-20T21:32:38;17.40;99.90
48912;DHT22;34722;52.108;5.044;2023-07-20T21:35:09;17.30;99.90
48912;DHT22;34722;52.108;5.044;2023-07-20T21:37:44;17.40;99.90
48912;DHT22;34722;52.108;5.044;2023-07-20T21:40:15;17.30;99.90
48912;DHT22;34722;52.108;5.044;2023-07-20T21:42:52;17.30;99.90
48912;DHT22;34722;52.108;5.044;2023-07-20T21:45:20;17.30;1.00
48912;DHT22;34722;52.108;5.044;2023-07-20T21:47:59;17.20;1.00
48912;DHT22;34722;52.108;5.044;2023-07-20T21:50:30;17.20;1.00
48912;DHT22;34722;52.108;5.044;2023-07-20T21:53:05;17.20;1.00
48912;DHT22;34722;52.108;5.044;2023-07-20T21:55:33;17.20;1.00
48912;DHT22;34722;52.108;5.044;2023-07-20T21:58:13;17.20;1.00
48912;DHT22;34722;52.108;5.044;2023-07-20T22:00:48;17.20;1.00
48912;DHT22;34722;52.108;5.044;2023-07-20T22:03:35;17.20;1.00
48912;DHT22;34722;52.108;5.044;2023-07-20T22:06:10;17.20;1.00
48912;DHT22;34722;52.108;5.044;2023-07-20T22:32:41;17.10;8.80
48912;DHT22;34722;52.108;5.044;2023-07-20T22:35:11;17.00;21.40
48912;DHT22;34722;52.108;5.044;2023-07-20T22:37:40;17.00;27.90
48912;DHT22;34722;52.108;5.044;2023-07-20T22:40:14;17.00;35.90
48912;DHT22;34722;52.108;5.044;2023-07-20T22:42:50;16.90;47.60
48912;DHT22;34722;52.108;5.044;2023-07-20T22:45:18;16.80;62.20
48912;DHT22;34722;52.108;5.044;2023-07-20T22:47:51;16.80;84.70
48912;DHT22;34722;52.108;5.044;2023-07-20T22:50:31;16.70;96.00
48912;DHT22;34722;52.108;5.044;2023-07-20T22:52:59;16.70;99.90
48912;DHT22;34722;52.108;5.044;2023-07-20T22:55:29;16.70;99.90
48912;DHT22;34722;52.108;5.044;2023-07-20T22:57:59;16.70;99.90
48912;DHT22;34722;52.108;5.044;2023-07-20T23:00:30;16.70;99.90
48912;DHT22;34722;52.108;5.044;2023-07-20T23:02:58;16.70;99.90
48912;DHT22;34722;52.108;5.044;2023-07-20T23:05:30;16.60;99.90
48912;DHT22;34722;52.108;5.044;2023-07-20T23:07:59;16.60;99.90
48912;DHT22;34722;52.108;5.044;2023-07-20T23:10:27;16.60;99.90
48912;DHT22;34722;52.108;5.044;2023-07-20T23:12:54;16.60;99.90
48912;DHT22;34722;52.108;5.044;2023-07-20T23:15:24;16.60;99.90
48912;DHT22;34722;52.108;5.044;2023-07-20T23:17:53;16.60;99.90
48912;DHT22;34722;52.108;5.044;2023-07-20T23:20:20;16.60;99.90
48912;DHT22;34722;52.108;5.044;2023-07-20T23:22:53;16.60;99.90
48912;DHT22;34722;52.108;5.044;2023-07-20T23:26:21;16.50;99.90
48912;DHT22;34722;52.108;5.044;2023-07-20T23:29:13;16.50;99.90
48912;DHT22;34722;52.108;5.044;2023-07-20T23:31:41;16.40;99.90
48912;DHT22;34722;52.108;5.044;2023-07-20T23:34:11;16.50;99.90
48912;DHT22;34722;52.108;5.044;2023-07-20T23:36:37;16.40;99.90
48912;DHT22;34722;52.108;5.044;2023-07-20T23:39:11;16.40;99.90
48912;DHT22;34722;52.108;5.044;2023-07-20T23:41:40;16.30;99.90
48912;DHT22;34722;52.108;5.044;2023-07-20T23:44:09;16.30;99.90
48912;DHT22;34722;52.108;5.044;2023-07-20T23:46:38;16.30;99.90
48912;DHT22;34722;52.108;5.044;2023-07-20T23:49:08;16.30;99.90
48912;DHT22;34722;52.108;5.044;2023-07-20T23:51:35;16.30;99.90
48912;DHT22;34722;52.108;5.044;2023-07-20T23:54:03;16.30;99.90
48912;DHT22;34722;52.108;5.044;2023-07-20T23:56:31;16.30;99.90
48912;DHT22;34722;52.108;5.044;2023-07-20T23:58:59;16.30;99.90
